Antalya, Turkey

1:09 PM +03 on August 18, 2019 (GMT +0300)
Antalya | | Change Station

Elev 174 ft 36.87 °N, 30.73 °E | Updated 19 minutes ago

Clear
Clear
91 °F
Feels Like 91 °F
N
18
Wind Variable Wind from NW

Today
High -- | Low -- °F
--% Chance of Precip.
Yesterday
High -- | Low -- °F
Precip. -- in
Pressure 29.68 in
Visibility 6.2 miles
Clouds Scattered Clouds 3000 ft
Dew Point 48 °F
Humidity 23%
Rainfall 0.00 in
Snow Depth Not available.
6:16 AM 7:45 PM
Waning Gibbous, 92% visible
METAR LTAI 180950Z 31016KT 9999 SCT030 33/09 Q1005 NOSIG RMK RWY18C 32014KT 270V350 RWY36R 33013KT 300V360 RWY18L 31015KT 280V350
Pressure 29.68 in
Visibility 6.2 miles
Clouds Scattered Clouds 3000 ft
Dew Point 48 °F
Humidity 23%
Rainfall 0.00 in
Snow Depth Not available.
6:16 AM 7:45 PM
Waning Gibbous, 92% visible
METAR LTAI 180950Z 31016KT 9999 SCT030 33/09 Q1005 NOSIG RMK RWY18C 32014KT 270V350 RWY36R 33013KT 300V360 RWY18L 31015KT 280V350

Get Severe Weather Alerts

Thanks for signing up!

Be on the lookout for a verification email in your inbox.

You'll start receiving the daily forecast at 6 AM.

×

10-Day Weather Forecast

×

Almanac

Astronomy

Aug. 18, 2019 Rise Set
Actual Time
Civil Twilight
Nautical Twilight
Astronomical Twilight
Moon
Length of Visible Light
Length of Day
Tomorrow will be .
, % of the Moon is Illuminated

Today's Extremes

Country Highs Country Lows

Community

WunderPhotos

Category 6

Welcome to Category 6. This is the collective home for Weather Underground's featured writeups by Dr. Jeff Masters (right), Bob Henson (left), Chris Burt, and other regular contributors.

Nearby

Air Quality

  Air Quality AQ Index Pollutant
Not available.

Snow Depth

Station Depth Elevation

Earthquake Activity

City Distance Mag. Time & Date
Minimum magnitude displayed is 2.5.

Coastal Water Temperatures

Place Temperature

Stations

Nearby Weather Stations

Station Location Temp. Windchill Dew Point Humidity Wind Precip. Elev Updated Type